Time;durP1;ratioP1;P1;durP2;ratioP2;P2;SDS_P1;SDS_P2;PMS_P1;PMS_P2;Temp;Humidity;BMP_temperature;BMP_pressure;BME280_temperature;BME280_humidity;BME280_pressure;Samples;Min_cycle;Max_cycle;Signal;HPM_P1;HPM_P2
2022/04/23 00:01:42;;;;;;;21.50;19.70;;;;;;;;;;5092556;28;20436;-76
2022/04/23 00:04:09;;;;;;;22.03;19.97;;;;;;;;;;5092829;28;20435;-76
2022/04/23 00:06:36;;;;;;;21.20;19.40;;;;;;;;;;5092282;28;20459;-78
2022/04/23 00:09:04;;;;;;;19.90;18.20;;;;;;;;;;5100411;28;20451;-76
2022/04/23 00:11:32;;;;;;;21.80;19.80;;;;;;;;;;5100714;28;20439;-76
2022/04/23 00:14:00;;;;;;;20.10;18.30;;;;;;;;;;5098914;28;20448;-77
2022/04/23 00:16:27;;;;;;;20.93;19.07;;;;;;;;;;5096653;28;20476;-77
2022/04/23 00:18:56;;;;;;;21.97;20.00;;;;;;;;;;5091626;28;20500;-78
2022/04/23 00:21:23;;;;;;;22.53;20.53;;;;;;;;;;5091141;28;20475;-76
2022/04/23 00:23:50;;;;;;;22.43;20.43;;;;;;;;;;5084254;28;20467;-77
2022/04/23 00:26:17;;;;;;;21.73;19.63;;;;;;;;;;5087000;28;20465;-75
2022/04/23 00:28:45;;;;;;;20.50;18.43;;;;;;;;;;5083516;28;20838;-77
2022/04/23 00:31:13;;;;;;;19.30;17.50;;;;;;;;;;5084044;28;20444;-76
2022/04/23 00:33:41;;;;;;;20.60;18.50;;;;;;;;;;5083469;28;20511;-77
2022/04/23 00:36:11;;;;;;;19.87;18.00;;;;;;;;;;5086131;28;20463;-77
2022/04/23 00:38:40;;;;;;;19.90;18.00;;;;;;;;;;5090849;28;20443;-77
2022/04/23 00:41:07;;;;;;;19.17;17.47;;;;;;;;;;5090390;28;20475;-78
2022/04/23 00:43:35;;;;;;;19.67;17.70;;;;;;;;;;5090732;28;20447;-77
2022/04/23 00:46:02;;;;;;;19.33;17.63;;;;;;;;;;5079718;28;20471;-76
2022/04/23 00:48:30;;;;;;;17.33;15.80;;;;;;;;;;5070284;28;20502;-76
2022/04/23 00:50:57;;;;;;;19.20;16.40;;;;;;;;;;5085670;28;20522;-77
2022/04/23 00:53:26;;;;;;;17.70;15.90;;;;;;;;;;5090376;28;20447;-77
2022/04/23 00:55:54;;;;;;;17.57;16.00;;;;;;;;;;5090278;28;20459;-76
2022/04/23 00:58:23;;;;;;;17.10;15.57;;;;;;;;;;5090856;28;20438;-76
2022/04/23 01:00:50;;;;;;;17.90;16.30;;;;;;;;;;5096279;28;20479;-78
2022/04/23 01:03:17;;;;;;;17.23;15.67;;;;;;;;;;5098587;28;20447;-77
2022/04/23 01:05:45;;;;;;;17.47;15.87;;;;;;;;;;5090192;28;20448;-77
2022/04/23 01:08:15;;;;;;;16.97;15.47;;;;;;;;;;5090885;28;20531;-77
2022/04/23 01:10:44;;;;;;;15.53;14.17;;;;;;;;;;5090060;28;20444;-77
2022/04/23 01:13:11;;;;;;;17.73;16.13;;;;;;;;;;5090323;28;20473;-77
2022/04/23 01:15:38;;;;;;;16.60;15.10;;;;;;;;;;5099227;28;20502;-77
2022/04/23 01:18:06;;;;;;;16.50;15.00;;;;;;;;;;5099083;28;20504;-77
2022/04/23 01:20:36;;;;;;;17.03;15.33;;;;;;;;;;5095155;28;20517;-77
2022/04/23 01:23:03;;;;;;;17.10;15.40;;;;;;;;;;5089854;28;20923;-77
2022/04/23 01:25:33;;;;;;;15.80;14.50;;;;;;;;;;5089685;28;20901;-78
2022/04/23 01:28:01;;;;;;;16.57;15.13;;;;;;;;;;5090421;28;20485;-77
2022/04/23 01:30:28;;;;;;;16.87;15.30;;;;;;;;;;5089706;28;20832;-77
2022/04/23 01:32:55;;;;;;;15.63;14.30;;;;;;;;;;5089646;28;20447;-77
2022/04/23 01:35:22;;;;;;;15.57;14.13;;;;;;;;;;5093687;28;20541;-78
2022/04/23 01:37:51;;;;;;;15.20;13.80;;;;;;;;;;5094139;28;20443;-78
2022/04/23 01:40:19;;;;;;;15.13;13.83;;;;;;;;;;5094902;28;20471;-77
2022/04/23 01:42:47;;;;;;;15.50;14.10;;;;;;;;;;5095481;28;20455;-78
2022/04/23 01:45:14;;;;;;;15.13;13.73;;;;;;;;;;5093962;28;20463;-76
2022/04/23 01:47:41;;;;;;;14.97;13.60;;;;;;;;;;5094005;28;20451;-75
2022/04/23 01:50:08;;;;;;;16.63;14.70;;;;;;;;;;5094013;28;20447;-76
2022/04/23 01:52:35;;;;;;;14.33;13.13;;;;;;;;;;5093879;28;20444;-76
2022/04/23 01:55:04;;;;;;;15.70;14.20;;;;;;;;;;5095004;28;20856;-77
2022/04/23 01:57:31;;;;;;;15.53;14.20;;;;;;;;;;5095687;28;20806;-76
2022/04/23 01:59:58;;;;;;;16.77;15.27;;;;;;;;;;5094082;28;20456;-76
2022/04/23 02:02:25;;;;;;;15.37;13.87;;;;;;;;;;5095544;28;20798;-76
2022/04/23 02:04:52;;;;;;;15.50;14.00;;;;;;;;;;5095116;28;20444;-77
2022/04/23 02:07:19;;;;;;;15.40;14.00;;;;;;;;;;5093931;28;20443;-76
2022/04/23 02:09:46;;;;;;;14.93;13.63;;;;;;;;;;5093373;28;20495;-76
2022/04/23 02:12:15;;;;;;;15.47;13.97;;;;;;;;;;5093786;28;20780;-77
2022/04/23 02:14:42;;;;;;;16.30;15.00;;;;;;;;;;5093227;28;20439;-76
2022/04/23 02:17:09;;;;;;;18.77;16.77;;;;;;;;;;5094044;28;20471;-77
2022/04/23 02:19:36;;;;;;;17.10;15.60;;;;;;;;;;5104498;28;20431;-75
2022/04/23 02:22:03;;;;;;;19.03;17.33;;;;;;;;;;5105418;28;20483;-77
2022/04/23 02:24:30;;;;;;;18.60;16.87;;;;;;;;;;5096099;28;20440;-77
2022/04/23 02:26:58;;;;;;;17.60;16.10;;;;;;;;;;5093820;28;20542;-76
2022/04/23 02:29:26;;;;;;;17.90;16.30;;;;;;;;;;5093807;28;20477;-77
2022/04/23 02:31:53;;;;;;;18.30;16.60;;;;;;;;;;5093041;28;20821;-77
2022/04/23 02:34:21;;;;;;;18.47;16.77;;;;;;;;;;5093082;28;20451;-76
2022/04/23 02:36:48;;;;;;;18.97;17.30;;;;;;;;;;5093346;28;20539;-76
2022/04/23 02:39:15;;;;;;;20.00;18.20;;;;;;;;;;5093347;28;20970;-76
2022/04/23 02:41:42;;;;;;;20.10;18.40;;;;;;;;;;5093094;28;21009;-76
2022/04/23 02:44:09;;;;;;;18.40;16.80;;;;;;;;;;5092586;28;20942;-76
2022/04/23 02:46:37;;;;;;;18.83;17.03;;;;;;;;;;5091807;28;20460;-76
2022/04/23 02:49:05;;;;;;;19.60;17.80;;;;;;;;;;5092874;28;20444;-76
2022/04/23 02:51:33;;;;;;;20.70;18.70;;;;;;;;;;5092883;28;20527;-77
2022/04/23 02:54:00;;;;;;;20.47;18.57;;;;;;;;;;5092715;28;20477;-76
2022/04/23 02:56:28;;;;;;;21.97;19.90;;;;;;;;;;5093380;28;20471;-77
2022/04/23 02:58:55;;;;;;;20.70;18.80;;;;;;;;;;5093243;28;20447;-77
2022/04/23 03:01:22;;;;;;;20.27;18.47;;;;;;;;;;5092888;28;20472;-76
2022/04/23 03:03:54;;;;;;;20.07;18.27;;;;;;;;;;5091847;28;20447;-77
2022/04/23 03:06:28;;;;;;;20.23;18.23;;;;;;;;;;5092377;28;20502;-77
2022/04/23 03:08:55;;;;;;;19.60;17.70;;;;;;;;;;5093173;28;20459;-78
2022/04/23 03:11:22;;;;;;;21.50;19.57;;;;;;;;;;5092937;28;20427;-76
2022/04/23 03:13:50;;;;;;;20.97;18.97;;;;;;;;;;5092535;28;20928;-77
2022/04/23 03:16:17;;;;;;;20.57;18.67;;;;;;;;;;5092179;28;20468;-75
2022/04/23 03:18:44;;;;;;;21.23;19.20;;;;;;;;;;5091947;28;20443;-77
2022/04/23 03:21:13;;;;;;;20.57;18.73;;;;;;;;;;5092387;28;20482;-76
2022/04/23 03:23:40;;;;;;;20.00;18.20;;;;;;;;;;5092144;28;20455;-75
2022/04/23 03:26:07;;;;;;;19.67;17.87;;;;;;;;;;5092109;28;20463;-77
2022/04/23 03:28:35;;;;;;;20.10;18.20;;;;;;;;;;5091817;28;20958;-75
2022/04/23 03:31:02;;;;;;;21.03;18.97;;;;;;;;;;5092072;28;20451;-76
2022/04/23 03:33:30;;;;;;;20.17;18.40;;;;;;;;;;5091664;28;20479;-77
2022/04/23 03:35:57;;;;;;;20.57;18.77;;;;;;;;;;5091748;28;20468;-77
2022/04/23 03:38:26;;;;;;;21.30;19.13;;;;;;;;;;5091479;28;20535;-75
2022/04/23 03:40:55;;;;;;;19.50;17.70;;;;;;;;;;5091898;28;20578;-76
2022/04/23 03:43:22;;;;;;;21.17;19.17;;;;;;;;;;5093888;28;20444;-75
2022/04/23 03:45:49;;;;;;;20.27;18.37;;;;;;;;;;5092008;28;20479;-76
2022/04/23 03:48:17;;;;;;;19.47;17.47;;;;;;;;;;5091631;28;20459;-76
2022/04/23 03:50:44;;;;;;;20.30;18.50;;;;;;;;;;5092043;28;20446;-78
2022/04/23 03:53:12;;;;;;;19.40;17.60;;;;;;;;;;5091928;28;20448;-75
2022/04/23 03:55:40;;;;;;;19.77;17.80;;;;;;;;;;5091354;28;20718;-76
2022/04/23 03:58:08;;;;;;;20.83;18.93;;;;;;;;;;5091234;28;20959;-76
2022/04/23 04:00:35;;;;;;;17.93;16.27;;;;;;;;;;5091225;28;21132;-76
2022/04/23 04:03:02;;;;;;;19.93;18.07;;;;;;;;;;5091434;28;20439;-78
2022/04/23 04:05:31;;;;;;;17.77;15.97;;;;;;;;;;5091168;28;20978;-77
2022/04/23 04:07:58;;;;;;;17.37;15.77;;;;;;;;;;5091486;28;20463;-76
2022/04/23 04:10:25;;;;;;;17.47;15.83;;;;;;;;;;5091468;28;20456;-76
2022/04/23 04:12:54;;;;;;;16.90;15.40;;;;;;;;;;5093505;28;20825;-77
2022/04/23 04:15:22;;;;;;;16.80;15.20;;;;;;;;;;5101125;28;20467;-76
2022/04/23 04:17:50;;;;;;;16.20;14.60;;;;;;;;;;5099092;28;20485;-76
2022/04/23 04:20:17;;;;;;;18.97;17.07;;;;;;;;;;5097932;28;21000;-77
2022/04/23 04:22:45;;;;;;;17.30;15.80;;;;;;;;;;5091319;28;20479;-76
2022/04/23 04:25:13;;;;;;;16.03;14.60;;;;;;;;;;5091240;28;20466;-77
2022/04/23 04:27:40;;;;;;;16.87;15.27;;;;;;;;;;5091909;28;20451;-76
2022/04/23 04:30:10;;;;;;;16.70;15.00;;;;;;;;;;5092198;28;20451;-79
2022/04/23 04:32:37;;;;;;;15.60;14.10;;;;;;;;;;5073533;28;20480;-76
2022/04/23 04:35:04;;;;;;;15.93;14.43;;;;;;;;;;5086659;28;20927;-78
2022/04/23 04:37:31;;;;;;;16.87;15.23;;;;;;;;;;5070722;28;20440;-78
2022/04/23 04:39:58;;;;;;;17.63;15.87;;;;;;;;;;5070612;28;20445;-77
2022/04/23 04:42:25;;;;;;;16.77;15.27;;;;;;;;;;5070240;28;20483;-76
2022/04/23 04:44:52;;;;;;;17.83;16.10;;;;;;;;;;5070834;28;20491;-77
2022/04/23 04:47:20;;;;;;;17.23;15.63;;;;;;;;;;5071161;28;20443;-77
2022/04/23 04:49:47;;;;;;;18.23;16.43;;;;;;;;;;5071548;28;20803;-77
2022/04/23 04:52:14;;;;;;;16.00;14.50;;;;;;;;;;5070888;28;20445;-77
2022/04/23 04:54:42;;;;;;;16.60;15.00;;;;;;;;;;5070501;28;20444;-77
2022/04/23 04:57:09;;;;;;;16.83;15.33;;;;;;;;;;5070540;28;20522;-77
2022/04/23 04:59:36;;;;;;;17.33;15.63;;;;;;;;;;5070394;28;20463;-77
2022/04/23 05:02:03;;;;;;;16.13;14.53;;;;;;;;;;5070358;28;20925;-77
2022/04/23 05:04:31;;;;;;;16.53;14.93;;;;;;;;;;5071850;28;20453;-77
2022/04/23 05:06:58;;;;;;;16.57;15.07;;;;;;;;;;5070905;28;20472;-76
2022/04/23 05:09:25;;;;;;;17.20;15.33;;;;;;;;;;5070675;28;20452;-76
2022/04/23 05:11:52;;;;;;;15.87;14.47;;;;;;;;;;5072166;28;20445;-76
2022/04/23 05:14:19;;;;;;;16.20;14.60;;;;;;;;;;5071622;28;21120;-76
2022/04/23 05:16:46;;;;;;;16.57;14.97;;;;;;;;;;5071010;28;20475;-78
2022/04/23 05:19:13;;;;;;;17.10;15.23;;;;;;;;;;5069795;28;20456;-77
2022/04/23 05:21:42;;;;;;;17.43;15.73;;;;;;;;;;5070010;28;20483;-76
2022/04/23 05:24:10;;;;;;;18.43;16.73;;;;;;;;;;5069595;28;20808;-77
2022/04/23 05:26:37;;;;;;;17.20;15.50;;;;;;;;;;5069905;28;20479;-77
2022/04/23 05:29:04;;;;;;;16.90;15.20;;;;;;;;;;5069930;28;20445;-78
2022/04/23 05:31:32;;;;;;;17.23;15.67;;;;;;;;;;5069860;28;20453;-77
2022/04/23 05:33:59;;;;;;;16.80;15.30;;;;;;;;;;5070022;28;20529;-76
2022/04/23 05:36:26;;;;;;;16.53;15.00;;;;;;;;;;5069930;28;20471;-77
2022/04/23 05:38:55;;;;;;;16.53;14.93;;;;;;;;;;5069862;28;20452;-77
2022/04/23 05:41:22;;;;;;;18.07;16.20;;;;;;;;;;5071023;28;20480;-76
2022/04/23 05:43:49;;;;;;;17.60;15.90;;;;;;;;;;5070346;28;20440;-75
2022/04/23 05:46:17;;;;;;;16.87;15.27;;;;;;;;;;5070222;28;20472;-76
2022/04/23 05:48:44;;;;;;;16.40;14.80;;;;;;;;;;5069914;28;20548;-78
2022/04/23 05:51:11;;;;;;;17.27;15.60;;;;;;;;;;5069872;28;21143;-77
2022/04/23 05:53:38;;;;;;;16.13;14.53;;;;;;;;;;5069545;28;20781;-76
2022/04/23 05:56:06;;;;;;;16.63;15.13;;;;;;;;;;5070071;28;20469;-78
2022/04/23 05:58:35;;;;;;;16.97;15.27;;;;;;;;;;5069677;28;20453;-78
2022/04/23 06:01:02;;;;;;;27.43;24.90;;;;;;;;;;5076993;28;20441;-76
2022/04/23 06:03:29;;;;;;;16.70;15.20;;;;;;;;;;5071445;28;20480;-77
2022/04/23 06:05:56;;;;;;;16.57;15.07;;;;;;;;;;5069619;28;20537;-77
2022/04/23 06:08:23;;;;;;;15.30;13.80;;;;;;;;;;5069542;28;20456;-77
2022/04/23 06:10:50;;;;;;;16.20;14.63;;;;;;;;;;5069429;28;20456;-76
2022/04/23 06:13:19;;;;;;;16.50;14.90;;;;;;;;;;5069514;28;20447;-75
2022/04/23 06:15:46;;;;;;;15.97;14.57;;;;;;;;;;5069774;28;20503;-76
2022/04/23 06:18:13;;;;;;;17.67;15.03;;;;;;;;;;5085487;28;20962;-77
2022/04/23 06:20:40;;;;;;;15.73;14.20;;;;;;;;;;5089649;28;20935;-77
2022/04/23 06:23:07;;;;;;;14.73;13.33;;;;;;;;;;5093097;28;20486;-76
2022/04/23 06:25:34;;;;;;;23.40;21.10;;;;;;;;;;5080864;28;20480;-76
2022/04/23 06:28:01;;;;;;;15.70;14.23;;;;;;;;;;5088760;28;20428;-76
2022/04/23 06:30:29;;;;;;;15.80;14.20;;;;;;;;;;5093430;28;20443;-76
2022/04/23 06:32:56;;;;;;;15.47;14.07;;;;;;;;;;5093101;28;20444;-76
2022/04/23 06:35:24;;;;;;;17.63;12.30;;;;;;;;;;5090432;28;20970;-78
2022/04/23 06:37:51;;;;;;;15.70;14.30;;;;;;;;;;5072657;28;20448;-77
2022/04/23 06:40:18;;;;;;;13.63;12.40;;;;;;;;;;5072554;28;20971;-76
2022/04/23 06:42:45;;;;;;;14.37;13.17;;;;;;;;;;5085923;28;20483;-77
2022/04/23 06:45:12;;;;;;;13.90;12.77;;;;;;;;;;5089254;28;20460;-76
2022/04/23 06:47:41;;;;;;;13.37;12.17;;;;;;;;;;5089762;28;20432;-77
2022/04/23 06:50:08;;;;;;;12.73;11.57;;;;;;;;;;5089811;28;20447;-77
2022/04/23 06:52:36;;;;;;;13.03;11.93;;;;;;;;;;5080701;28;20451;-76
2022/04/23 06:55:04;;;;;;;12.30;11.13;;;;;;;;;;5072971;28;20452;-75
2022/04/23 06:57:31;;;;;;;12.33;11.23;;;;;;;;;;5073033;28;20448;-76
2022/04/23 07:00:00;;;;;;;11.30;10.30;;;;;;;;;;5072351;28;20505;-77
2022/04/23 07:02:27;;;;;;;12.00;11.00;;;;;;;;;;5072342;28;20480;-75
2022/04/23 07:04:56;;;;;;;11.63;10.63;;;;;;;;;;5072070;28;20448;-76
2022/04/23 07:07:26;;;;;;;11.40;10.50;;;;;;;;;;5072432;28;20448;-76
2022/04/23 07:09:53;;;;;;;10.80;9.90;;;;;;;;;;5073252;28;20905;-77
2022/04/23 07:12:20;;;;;;;11.07;10.10;;;;;;;;;;5081537;28;20457;-76
2022/04/23 07:14:47;;;;;;;11.10;10.20;;;;;;;;;;5093972;28;20452;-77
2022/04/23 07:17:14;;;;;;;10.53;9.63;;;;;;;;;;5096532;28;20463;-77
2022/04/23 07:19:41;;;;;;;10.07;9.23;;;;;;;;;;5095764;28;20452;-78
2022/04/23 07:22:10;;;;;;;10.37;9.47;;;;;;;;;;5095167;28;20475;-78
2022/04/23 07:24:38;;;;;;;11.97;10.77;;;;;;;;;;5084024;28;20453;-77
2022/04/23 07:27:05;;;;;;;10.40;9.60;;;;;;;;;;5091510;28;20464;-79
2022/04/23 07:29:32;;;;;;;10.83;9.70;;;;;;;;;;5081805;28;20956;-78
2022/04/23 07:31:59;;;;;;;10.47;9.47;;;;;;;;;;5086769;28;20437;-79
2022/04/23 07:37:31;;;;;;;10.80;9.80;;;;;;;;;;5072828;28;20810;-77
2022/04/23 07:39:58;;;;;;;10.50;9.60;;;;;;;;;;5072810;28;20539;-78
2022/04/23 07:42:25;;;;;;;10.50;9.60;;;;;;;;;;5072851;28;20861;-79
2022/04/23 07:44:52;;;;;;;10.73;9.83;;;;;;;;;;5072240;28;20539;-78
2022/04/23 07:47:19;;;;;;;10.23;9.33;;;;;;;;;;5072646;28;20448;-78
2022/04/23 07:49:46;;;;;;;9.40;8.60;;;;;;;;;;5072366;28;20448;-78
2022/04/23 07:52:15;;;;;;;9.53;8.73;;;;;;;;;;5072342;28;20437;-77
2022/04/23 07:54:43;;;;;;;9.43;8.63;;;;;;;;;;5072784;28;20449;-80
2022/04/23 07:57:11;;;;;;;9.70;8.90;;;;;;;;;;5073907;28;20464;-76
2022/04/23 07:59:40;;;;;;;9.60;8.80;;;;;;;;;;5073654;28;20543;-78
2022/04/23 08:02:08;;;;;;;9.00;8.27;;;;;;;;;;5073294;28;20472;-76
2022/04/23 08:04:35;;;;;;;9.13;8.33;;;;;;;;;;5074069;28;20449;-77
2022/04/23 08:07:02;;;;;;;9.23;8.43;;;;;;;;;;5086058;28;20467;-79
2022/04/23 08:09:31;;;;;;;9.70;8.90;;;;;;;;;;5092461;28;20455;-78
2022/04/23 08:11:58;;;;;;;9.77;8.97;;;;;;;;;;5093387;28;20444;-77
2022/04/23 08:14:25;;;;;;;9.50;8.70;;;;;;;;;;5094621;28;20444;-77
2022/04/23 08:16:52;;;;;;;10.67;9.77;;;;;;;;;;5092634;28;20974;-77
2022/04/23 08:19:19;;;;;;;10.00;9.03;;;;;;;;;;5095308;28;20447;-77
2022/04/23 08:21:46;;;;;;;9.90;9.00;;;;;;;;;;5096142;28;20435;-77
2022/04/23 08:24:13;;;;;;;9.20;8.40;;;;;;;;;;5092410;28;20475;-78
2022/04/23 08:26:42;;;;;;;10.33;9.50;;;;;;;;;;5095247;28;20472;-78
2022/04/23 08:31:54;;;;;;;10.43;9.40;;;;;;;;;;5095115;28;20423;-78
2022/04/23 08:34:21;;;;;;;10.50;9.53;;;;;;;;;;5095293;28;20967;-76
2022/04/23 08:36:49;;;;;;;9.80;8.90;;;;;;;;;;5094475;28;20589;-78
2022/04/23 08:39:17;;;;;;;9.87;9.07;;;;;;;;;;5095794;28;20451;-79
2022/04/23 08:41:47;;;;;;;10.13;9.07;;;;;;;;;;5093538;28;20867;-76
2022/04/23 08:44:16;;;;;;;9.93;9.07;;;;;;;;;;5090971;28;20508;-78
2022/04/23 08:46:44;;;;;;;10.67;9.70;;;;;;;;;;5092069;28;20468;-78
2022/04/23 08:49:13;;;;;;;10.13;9.20;;;;;;;;;;5092342;28;20448;-78
2022/04/23 08:51:41;;;;;;;10.93;9.70;;;;;;;;;;5092058;28;20459;-78
2022/04/23 08:54:09;;;;;;;10.60;9.03;;;;;;;;;;5092242;28;20467;-77
2022/04/23 08:56:37;;;;;;;11.57;10.57;;;;;;;;;;5092353;28;20464;-78
2022/04/23 08:59:07;;;;;;;9.77;8.93;;;;;;;;;;5093313;28;20450;-76
2022/04/23 09:01:34;;;;;;;11.63;10.53;;;;;;;;;;5095438;28;20511;-78
2022/04/23 09:04:02;;;;;;;11.03;9.93;;;;;;;;;;5092439;28;21176;-76
2022/04/23 09:06:40;;;;;;;10.27;9.37;;;;;;;;;;5091603;28;20464;-77
2022/04/23 09:09:07;;;;;;;9.73;8.83;;;;;;;;;;5091490;28;20451;-77
2022/04/23 09:11:36;;;;;;;10.67;9.63;;;;;;;;;;5091589;28;20448;-78
2022/04/23 09:14:03;;;;;;;9.70;8.90;;;;;;;;;;5090938;28;20467;-77
2022/04/23 09:24:46;;;;;;;9.40;8.60;;;;;;;;;;5090679;28;20431;-78
2022/04/23 09:27:13;;;;;;;10.53;9.63;;;;;;;;;;5090988;28;20460;-79
2022/04/23 09:29:42;;;;;;;10.47;9.47;;;;;;;;;;5091267;28;20489;-78
2022/04/23 09:32:11;;;;;;;9.43;8.53;;;;;;;;;;5091101;28;20971;-78
2022/04/23 09:34:38;;;;;;;9.80;8.90;;;;;;;;;;5085552;28;20535;-79
2022/04/23 09:37:06;;;;;;;8.67;7.97;;;;;;;;;;5088039;28;20499;-77
2022/04/23 09:39:34;;;;;;;8.30;7.60;;;;;;;;;;5090629;28;20444;-78
2022/04/23 09:42:14;;;;;;;8.47;7.70;;;;;;;;;;5082226;28;20482;-77
2022/04/23 09:44:42;;;;;;;9.13;8.23;;;;;;;;;;5086375;28;20500;-77
2022/04/23 09:47:10;;;;;;;9.20;8.37;;;;;;;;;;5090430;28;20514;-78
2022/04/23 09:49:39;;;;;;;8.20;7.50;;;;;;;;;;5070699;28;20981;-78
2022/04/23 09:52:07;;;;;;;8.70;7.90;;;;;;;;;;5079216;28;20501;-80
2022/04/23 09:54:35;;;;;;;8.77;8.07;;;;;;;;;;5091331;28;20431;-78
2022/04/23 09:57:02;;;;;;;7.63;6.90;;;;;;;;;;5095737;28;20815;-78
2022/04/23 09:59:29;;;;;;;7.80;7.10;;;;;;;;;;5096655;28;20878;-78
2022/04/23 10:01:56;;;;;;;7.30;6.70;;;;;;;;;;5098783;28;20518;-77
2022/04/23 10:04:26;;;;;;;7.43;6.90;;;;;;;;;;5094555;28;20483;-78
2022/04/23 10:06:54;;;;;;;8.60;7.80;;;;;;;;;;5095353;28;20538;-80
2022/04/23 10:09:22;;;;;;;8.00;6.57;;;;;;;;;;5095173;28;20451;-78
2022/04/23 10:11:51;;;;;;;7.83;7.17;;;;;;;;;;5094916;28;20450;-78
2022/04/23 10:14:22;;;;;;;7.33;6.73;;;;;;;;;;5094180;28;20816;-79
2022/04/23 10:16:50;;;;;;;8.30;7.70;;;;;;;;;;5094529;28;20954;-77
2022/04/23 10:19:17;;;;;;;8.17;7.47;;;;;;;;;;5094655;28;20439;-78
2022/04/23 10:21:49;;;;;;;7.20;6.70;;;;;;;;;;5094482;28;20902;-78
2022/04/23 10:24:19;;;;;;;6.77;6.17;;;;;;;;;;5094331;28;20567;-78
2022/04/23 10:26:48;;;;;;;7.70;7.00;;;;;;;;;;5094345;28;20471;-78
2022/04/23 10:29:16;;;;;;;7.20;6.60;;;;;;;;;;5094944;28;20442;-78
2022/04/23 10:31:43;;;;;;;7.57;6.97;;;;;;;;;;5094433;28;20493;-78
2022/04/23 10:34:31;;;;;;;7.57;6.90;;;;;;;;;;5094829;28;20815;-79
2022/04/23 10:37:13;;;;;;;15.27;13.77;;;;;;;;;;5094166;28;20884;-77
2022/04/23 10:39:42;;;;;;;7.40;6.80;;;;;;;;;;5093993;28;20523;-76
2022/04/23 10:42:13;;;;;;;7.87;7.27;;;;;;;;;;5093739;28;20869;-77
2022/04/23 10:44:40;;;;;;;7.80;7.00;;;;;;;;;;5094489;28;20475;-77
2022/04/23 10:47:12;;;;;;;6.20;5.70;;;;;;;;;;5093245;28;20471;-78
2022/04/23 10:49:39;;;;;;;7.00;6.47;;;;;;;;;;5091268;28;20795;-79
2022/04/23 10:52:07;;;;;;;7.93;6.87;;;;;;;;;;5094367;28;20455;-77
2022/04/23 10:54:52;;;;;;;7.33;6.73;;;;;;;;;;5093683;28;20416;-77
2022/04/23 10:57:23;;;;;;;7.33;6.63;;;;;;;;;;5086506;28;20451;-76
2022/04/23 10:59:50;;;;;;;7.80;7.10;;;;;;;;;;5094125;28;20424;-76
2022/04/23 11:02:30;;;;;;;7.10;6.40;;;;;;;;;;5094334;28;20440;-78
2022/04/23 11:13:26;;;;;;;7.93;7.33;;;;;;;;;;5078037;28;20452;-78
2022/04/23 11:16:23;;;;;;;8.97;8.17;;;;;;;;;;5080778;28;20831;-79
2022/04/23 11:18:51;;;;;;;8.10;7.50;;;;;;;;;;5074068;28;20919;-77
2022/04/23 11:21:19;;;;;;;8.20;7.50;;;;;;;;;;5074639;28;20448;-78
2022/04/23 11:23:47;;;;;;;8.20;7.50;;;;;;;;;;5075847;28;20481;-78
2022/04/23 11:26:14;;;;;;;8.50;7.70;;;;;;;;;;5074480;28;20500;-79
2022/04/23 11:28:43;;;;;;;14.03;12.77;;;;;;;;;;5076459;28;20448;-81
2022/04/23 11:31:14;;;;;;;9.77;8.73;;;;;;;;;;5077256;28;20452;-80
2022/04/23 11:33:51;;;;;;;9.47;8.57;;;;;;;;;;5075800;28;20445;-79
2022/04/23 11:36:18;;;;;;;9.73;8.93;;;;;;;;;;5074814;28;20464;-79
2022/04/23 11:38:46;;;;;;;9.23;8.43;;;;;;;;;;5074494;28;21080;-79
2022/04/23 11:41:26;;;;;;;9.43;8.60;;;;;;;;;;5076128;28;20444;-80
2022/04/23 11:43:54;;;;;;;9.20;8.30;;;;;;;;;;5075162;28;20468;-79
2022/04/23 11:46:21;;;;;;;10.00;9.10;;;;;;;;;;5073186;28;20472;-79
2022/04/23 11:48:50;;;;;;;9.90;9.00;;;;;;;;;;5073589;28;20476;-79
2022/04/23 11:51:19;;;;;;;9.10;8.30;;;;;;;;;;5075870;28;20445;-80
2022/04/23 11:54:04;;;;;;;10.30;9.40;;;;;;;;;;5076226;28;20449;-78
2022/04/23 11:56:33;;;;;;;9.37;8.57;;;;;;;;;;5074918;28;20487;-80
2022/04/23 11:59:04;;;;;;;9.90;8.90;;;;;;;;;;5073717;28;20990;-79
2022/04/23 12:01:31;;;;;;;9.50;8.60;;;;;;;;;;5073710;28;20472;-79
2022/04/23 12:03:59;;;;;;;9.53;8.73;;;;;;;;;;5073367;28;20471;-80
2022/04/23 12:06:26;;;;;;;9.40;8.60;;;;;;;;;;5073514;28;20464;-79
2022/04/23 12:09:04;;;;;;;9.20;8.50;;;;;;;;;;5073332;28;20453;-78
2022/04/23 12:11:31;;;;;;;9.30;8.50;;;;;;;;;;5073172;28;20471;-78
2022/04/23 12:14:01;;;;;;;9.90;9.10;;;;;;;;;;5072698;28;20547;-79
2022/04/23 12:16:33;;;;;;;11.33;9.07;;;;;;;;;;5074931;28;20891;-80
2022/04/23 12:19:01;;;;;;;9.30;8.50;;;;;;;;;;5092682;28;20493;-79
2022/04/23 12:21:28;;;;;;;9.23;8.33;;;;;;;;;;5077742;28;21007;-78
2022/04/23 12:23:55;;;;;;;9.70;8.77;;;;;;;;;;5091072;28;21055;-79
2022/04/23 12:26:23;;;;;;;9.90;8.93;;;;;;;;;;5093065;28;20513;-80
2022/04/23 12:43:11;;;;;;;9.10;8.30;;;;;;;;;;5091633;28;20451;-77
2022/04/23 12:45:41;;;;;;;8.43;7.73;;;;;;;;;;5079117;28;20849;-79
2022/04/23 12:48:12;;;;;;;8.57;7.87;;;;;;;;;;5092317;28;20428;-79
2022/04/23 12:50:39;;;;;;;8.93;8.07;;;;;;;;;;5092329;28;20428;-78
2022/04/23 12:53:06;;;;;;;8.87;8.17;;;;;;;;;;5092159;28;20448;-78
2022/04/23 12:55:37;;;;;;;10.30;9.30;;;;;;;;;;5092142;28;20459;-76
2022/04/23 12:58:08;;;;;;;9.60;8.80;;;;;;;;;;5091898;28;20576;-76
2022/04/23 13:00:35;;;;;;;9.60;8.80;;;;;;;;;;5091565;28;20518;-77
2022/04/23 13:03:15;;;;;;;9.63;8.70;;;;;;;;;;5091242;28;20954;-78
2022/04/23 13:05:43;;;;;;;9.03;8.30;;;;;;;;;;5091962;28;20814;-79
2022/04/23 13:10:55;;;;;;;9.33;8.53;;;;;;;;;;5092041;28;20438;-75
2022/04/23 13:13:23;;;;;;;9.20;8.40;;;;;;;;;;5092010;28;20443;-76
2022/04/23 13:15:50;;;;;;;9.23;8.40;;;;;;;;;;5091219;28;20544;-75
2022/04/23 13:18:17;;;;;;;9.00;8.10;;;;;;;;;;5091516;28;20800;-77
2022/04/23 13:20:45;;;;;;;10.10;9.27;;;;;;;;;;5091672;28;20436;-76
2022/04/23 13:23:13;;;;;;;9.13;8.43;;;;;;;;;;5091970;28;20933;-78
2022/04/23 13:25:41;;;;;;;10.33;9.40;;;;;;;;;;5091766;28;20858;-78
2022/04/23 13:28:08;;;;;;;10.30;9.40;;;;;;;;;;5091394;28;20444;-78
2022/04/23 13:30:35;;;;;;;14.73;13.43;;;;;;;;;;5091162;28;20448;-79
2022/04/23 13:33:02;;;;;;;14.40;12.97;;;;;;;;;;5091348;28;20463;-77
2022/04/23 13:35:29;;;;;;;11.40;10.50;;;;;;;;;;5091461;28;20513;-78
2022/04/23 13:37:58;;;;;;;12.80;11.60;;;;;;;;;;5091048;28;20448;-77
2022/04/23 13:40:25;;;;;;;10.20;9.30;;;;;;;;;;5090854;28;20447;-76
2022/04/23 13:42:52;;;;;;;11.20;10.17;;;;;;;;;;5091168;28;20451;-78
2022/04/23 13:45:19;;;;;;;10.07;9.17;;;;;;;;;;5097915;28;20483;-77
2022/04/23 13:47:50;;;;;;;11.70;10.80;;;;;;;;;;5097937;28;20450;-77
2022/04/23 13:50:17;;;;;;;11.20;10.20;;;;;;;;;;5097443;28;20475;-77
2022/04/23 13:52:44;;;;;;;11.70;10.70;;;;;;;;;;5098043;28;20452;-77
2022/04/23 13:55:13;;;;;;;10.10;9.13;;;;;;;;;;5094254;28;20463;-78
2022/04/23 13:57:40;;;;;;;10.70;9.80;;;;;;;;;;5091328;28;20491;-79
2022/04/23 14:00:09;;;;;;;10.50;9.70;;;;;;;;;;5090784;28;20455;-77
2022/04/23 14:11:22;;;;;;;12.50;11.40;;;;;;;;;;5071222;28;20479;-78
2022/04/23 14:13:52;;;;;;;12.13;10.93;;;;;;;;;;5089779;28;20919;-78
2022/04/23 14:16:19;;;;;;;11.87;10.87;;;;;;;;;;5095911;28;21059;-78
2022/04/23 14:18:46;;;;;;;11.63;10.73;;;;;;;;;;5092579;28;20439;-78
2022/04/23 14:21:13;;;;;;;11.00;10.10;;;;;;;;;;5091410;28;20444;-79
2022/04/23 14:23:40;;;;;;;12.17;11.17;;;;;;;;;;5091216;28;20451;-78
2022/04/23 14:26:08;;;;;;;11.93;10.83;;;;;;;;;;5090848;28;20464;-78
2022/04/23 14:28:35;;;;;;;11.67;10.77;;;;;;;;;;5091103;28;20479;-77
2022/04/23 14:31:03;;;;;;;12.13;10.80;;;;;;;;;;5096906;28;20443;-77
2022/04/23 14:33:30;;;;;;;12.93;11.93;;;;;;;;;;5097620;28;20858;-78
2022/04/23 14:35:58;;;;;;;10.83;10.00;;;;;;;;;;5095024;28;20979;-76
2022/04/23 14:38:25;;;;;;;12.40;11.07;;;;;;;;;;5095005;28;20438;-77
2022/04/23 14:40:52;;;;;;;15.33;13.83;;;;;;;;;;5094331;28;20470;-78
2022/04/23 14:43:19;;;;;;;13.40;12.30;;;;;;;;;;5081467;28;20445;-77
2022/04/23 14:45:46;;;;;;;13.87;12.30;;;;;;;;;;5092383;28;20487;-79
2022/04/23 14:48:14;;;;;;;14.10;12.80;;;;;;;;;;5092373;28;20451;-80
2022/04/23 14:53:26;;;;;;;14.13;13.03;;;;;;;;;;5091742;28;21014;-78
2022/04/23 14:55:53;;;;;;;14.30;13.20;;;;;;;;;;5092095;28;20806;-78
2022/04/23 14:58:21;;;;;;;14.83;13.53;;;;;;;;;;5093075;28;20525;-78
2022/04/23 15:00:48;;;;;;;14.70;13.40;;;;;;;;;;5094392;28;20765;-80
2022/04/23 15:03:17;;;;;;;14.80;13.60;;;;;;;;;;5093603;28;20478;-80
2022/04/23 15:05:45;;;;;;;14.80;13.50;;;;;;;;;;5093705;28;20475;-76
2022/04/23 15:08:12;;;;;;;15.60;14.20;;;;;;;;;;5093690;28;20448;-78
2022/04/23 15:10:39;;;;;;;15.07;13.63;;;;;;;;;;5093558;28;20460;-79
2022/04/23 15:13:06;;;;;;;15.37;14.10;;;;;;;;;;5093317;28;20874;-78
2022/04/23 15:15:34;;;;;;;15.77;14.37;;;;;;;;;;5093527;28;20495;-78
2022/04/23 15:18:01;;;;;;;15.93;14.30;;;;;;;;;;5093603;28;20447;-78
2022/04/23 15:20:29;;;;;;;15.83;14.53;;;;;;;;;;5093803;28;20451;-78
2022/04/23 15:22:56;;;;;;;15.10;13.90;;;;;;;;;;5093063;28;20447;-77